Terminal Aerodrome Forecast
Issued by NWS Mt. Holly, NJ

Home | Current Version | Previous Version | Text Only | Print | Product List | Glossary On
Versions: 1 2 3 4 5 6 7 8 9 10 11 12 13 14 15 16 17 18 19 20 21 22
000
FTUS41 KPHI 011500 AAA
TAFPHL
TAF AMD
KPHL 011505Z 0115/0218 17007KT P6SM FEW025 SCT040 BKN150
      TEMPO 0119/0123 P6SM -SHRA BKN040
     FM020000 VRB04KT P6SM OVC060
     FM020600 08005KT 5SM -SHRA BR OVC060
     FM021300 05009KT 5SM BR OVC020=

USA.gov is the U.S. government's official web portal to all federal, state and local government web resources and services.